createdAt,value
2022-08-26T07:09:33.101Z,101409.94
2022-08-26T07:10:05.268Z,101409.41
2022-08-26T07:10:37.679Z,101408.56
2022-08-26T07:11:09.660Z,101414.00
2022-08-26T07:11:41.188Z,101409.66
2022-08-26T07:12:12.635Z,101404.78
2022-08-26T07:12:47.189Z,101414.53
2022-08-26T07:13:30.511Z,101410.19
2022-08-26T07:14:02.452Z,101413.47
2022-08-26T07:14:34.433Z,101418.31
2022-08-26T07:15:05.998Z,101414.25
2022-08-26T07:15:39.983Z,101408.56
2022-08-26T07:16:12.651Z,101405.31
2022-08-26T07:16:45.005Z,101414.25
2022-08-26T07:17:16.569Z,101409.66
2022-08-26T07:17:48.052Z,101400.69
2022-08-26T07:18:19.523Z,101406.41
2022-08-26T07:18:54.513Z,101416.69
2022-08-26T07:19:31.109Z,101406.94
2022-08-26T07:20:03.888Z,101405.59
2022-08-26T07:20:37.297Z,101409.66
2022-08-26T07:21:09.570Z,101400.97
2022-08-26T07:21:44.152Z,101407.75
2022-08-26T07:22:15.951Z,101413.19
2022-08-26T07:22:47.888Z,101409.66
2022-08-26T07:23:19.366Z,101405.84
2022-08-26T07:23:51.225Z,101403.69
2022-08-26T07:24:23.675Z,101404.25
2022-08-26T07:25:00.062Z,101398.25
2022-08-26T07:25:31.547Z,101403.69
2022-08-26T07:26:06.816Z,101409.09
2022-08-26T07:26:43.083Z,101408.28
2022-08-26T07:27:15.458Z,101405.84
2022-08-26T07:27:47.022Z,101414.00
2022-08-26T07:28:27.852Z,101404.22
2022-08-26T07:28:59.565Z,101408.56
2022-08-26T07:29:31.070Z,101411.00
2022-08-26T07:30:02.724Z,101410.19
2022-08-26T07:30:37.807Z,101409.09
2022-08-26T07:31:10.023Z,101409.09
2022-08-26T07:31:42.867Z,101411.28
2022-08-26T07:32:14.867Z,101407.50
2022-08-26T07:32:46.351Z,101407.75
2022-08-26T07:33:18.055Z,101408.56
2022-08-26T07:33:49.656Z,101401.47
2022-08-26T07:34:22.974Z,101411.22
2022-08-26T07:34:54.394Z,101408.00
2022-08-26T07:35:26.166Z,101408.03
2022-08-26T07:35:57.581Z,101409.91
2022-08-26T07:36:30.220Z,101411.25
2022-08-26T07:37:02.100Z,101412.88
2022-08-26T07:37:35.566Z,101406.13
2022-08-26T07:38:11.102Z,101422.09
2022-08-26T07:38:44.286Z,101414.78
2022-08-26T07:39:16.588Z,101418.03
2022-08-26T07:39:48.122Z,101415.06
2022-08-26T07:40:20.754Z,101417.25
2022-08-26T07:40:52.331Z,101418.03
2022-08-26T07:41:25.064Z,101423.75
2022-08-26T07:41:56.588Z,101418.03
2022-08-26T07:42:29.312Z,101423.72
2022-08-26T07:43:00.922Z,101421.00
2022-08-26T07:43:32.602Z,101416.94
2022-08-26T07:44:04.278Z,101423.16
2022-08-26T07:44:36.918Z,101424.50
2022-08-26T07:45:08.501Z,101427.47
2022-08-26T07:45:40.009Z,101424.22
2022-08-26T07:46:16.448Z,101429.09
2022-08-26T07:46:52.358Z,101423.94
2022-08-26T07:47:26.343Z,101426.13
2022-08-26T07:47:58.424Z,101435.59
2022-08-26T07:48:30.121Z,101431.78
2022-08-26T07:49:02.135Z,101436.69
2022-08-26T07:49:34.744Z,101432.06
2022-08-26T07:50:06.560Z,101433.69
2022-08-26T07:50:50.097Z,101433.97
2022-08-26T07:51:22.558Z,101436.66
2022-08-26T07:51:54.535Z,101439.34
2022-08-26T07:52:27.464Z,101435.03
2022-08-26T07:52:59.220Z,101448.34
2022-08-26T07:53:32.025Z,101439.38
2022-08-26T07:54:04.054Z,101437.19
2022-08-26T07:54:37.452Z,101442.38
2022-08-26T07:55:09.603Z,101439.94
2022-08-26T07:55:41.041Z,101452.44
2022-08-26T07:56:12.687Z,101444.84
2022-08-26T07:56:44.656Z,101451.38
2022-08-26T07:57:16.108Z,101444.03
2022-08-26T07:57:50.606Z,101447.53
2022-08-26T07:58:22.141Z,101445.09
2022-08-26T07:58:53.718Z,101447.81
2022-08-26T07:59:25.771Z,101438.88
2022-08-26T07:59:57.473Z,101443.19
2022-08-26T08:00:32.723Z,101442.09
2022-08-26T08:01:04.512Z,101444.03
2022-08-26T08:01:36.628Z,101447.00
2022-08-26T08:02:10.472Z,101443.22
2022-08-26T08:02:44.586Z,101444.25
2022-08-26T08:03:16.044Z,101441.81
2022-08-26T08:03:51.570Z,101444.25
2022-08-26T08:04:26.553Z,101443.19
2022-08-26T08:04:58.547Z,101448.88
2022-08-26T08:05:33.532Z,101444.78
2022-08-26T08:06:05.458Z,101449.13
2022-08-26T08:06:38.632Z,101442.63
2022-08-26T08:07:11.529Z,101451.28
2022-08-26T08:07:46.698Z,101450.50
2022-08-26T08:08:27.748Z,101447.00
2022-08-26T08:09:01.257Z,101447.78
2022-08-26T08:09:32.848Z,101449.69
2022-08-26T08:10:09.656Z,101452.09
2022-08-26T08:10:45.037Z,101454.03
2022-08-26T08:11:21.193Z,101441.56
2022-08-26T08:11:53.033Z,101444.56
2022-08-26T08:12:24.513Z,101450.28
2022-08-26T08:12:57.619Z,101447.53
2022-08-26T08:13:30.333Z,101444.28
2022-08-26T08:14:03.507Z,101444.81
2022-08-26T08:14:40.121Z,101452.66
2022-08-26T08:15:13.486Z,101450.78
2022-08-26T08:15:45.001Z,101450.75
2022-08-26T08:16:16.473Z,101454.53
2022-08-26T08:16:48.219Z,101450.75
2022-08-26T08:17:24.856Z,101449.66
2022-08-26T08:18:00.206Z,101449.13
2022-08-26T08:18:32.373Z,101450.50
2022-08-26T08:19:03.939Z,101448.88
2022-08-26T08:19:36.651Z,101442.63
2022-08-26T08:20:09.083Z,101450.75
2022-08-26T08:20:42.300Z,101450.19
2022-08-26T08:21:24.115Z,101446.91
2022-08-26T08:21:55.819Z,101455.56
2022-08-26T08:22:27.314Z,101449.88
2022-08-26T08:22:58.870Z,101452.38
2022-08-26T08:23:31.579Z,101446.91
2022-08-26T08:24:03.240Z,101453.94
2022-08-26T08:24:34.945Z,101455.56
2022-08-26T08:25:08.273Z,101454.47
2022-08-26T08:25:42.046Z,101452.84
2022-08-26T08:26:14.184Z,101449.59
2022-08-26T08:26:46.077Z,101456.13
2022-08-26T08:27:22.854Z,101453.41
2022-08-26T08:27:55.391Z,101458.03
2022-08-26T08:28:28.648Z,101457.75
2022-08-26T08:29:00.184Z,101457.22
2022-08-26T08:29:31.867Z,101458.03
2022-08-26T08:30:05.148Z,101447.97
2022-08-26T08:30:38.288Z,101456.41
2022-08-26T08:31:10.330Z,101464.25
2022-08-26T08:31:58.269Z,101453.66
2022-08-26T08:32:29.997Z,101451.81
2022-08-26T08:33:03.205Z,101461.03
2022-08-26T08:33:35.323Z,101455.06
2022-08-26T08:34:06.790Z,101457.22
2022-08-26T08:34:38.324Z,101462.66
2022-08-26T08:35:11.042Z,101455.06
2022-08-26T08:35:45.948Z,101461.81
2022-08-26T08:36:18.622Z,101463.44
2022-08-26T08:36:53.312Z,101460.72
2022-08-26T08:37:25.346Z,101459.66
2022-08-26T08:37:57.147Z,101462.41
2022-08-26T08:38:28.602Z,101465.38
2022-08-26T08:39:00.073Z,101461.53
2022-08-26T08:39:31.573Z,101462.09
2022-08-26T08:40:04.552Z,101465.94
2022-08-26T08:40:36.085Z,101467.00
2022-08-26T08:41:14.062Z,101462.09
2022-08-26T08:41:54.568Z,101470.81
2022-08-26T08:42:45.333Z,101457.25
2022-08-26T08:43:27.564Z,101458.31
2022-08-26T08:43:59.788Z,101463.47
2022-08-26T08:44:31.604Z,101459.97
2022-08-26T08:45:11.269Z,101464.59
2022-08-26T08:45:45.003Z,101468.09
2022-08-26T08:46:19.557Z,101463.22
2022-08-26T08:46:52.315Z,101460.47
2022-08-26T08:47:24.089Z,101455.03
2022-08-26T08:47:58.088Z,101456.38
2022-08-26T08:48:30.862Z,101448.81
2022-08-26T08:49:04.174Z,101454.75
2022-08-26T08:49:35.698Z,101455.03
2022-08-26T08:50:13.024Z,101456.09
2022-08-26T08:50:46.373Z,101452.31
2022-08-26T08:51:32.943Z,101456.09
2022-08-26T08:52:10.144Z,101457.72
2022-08-26T08:52:43.755Z,101451.22
2022-08-26T08:53:23.625Z,101459.34
2022-08-26T08:53:55.336Z,101455.00
2022-08-26T08:54:26.936Z,101451.75
2022-08-26T08:54:58.381Z,101451.47
2022-08-26T08:55:32.726Z,101448.72
2022-08-26T08:56:24.720Z,101453.88
2022-08-26T08:57:03.793Z,101448.47
2022-08-26T08:57:35.879Z,101457.69
2022-08-26T08:58:08.970Z,101463.09
2022-08-26T08:58:51.907Z,101453.31
2022-08-26T08:59:26.729Z,101454.41
2022-08-26T09:00:07.283Z,101456.03
2022-08-26T09:00:42.004Z,101451.97
2022-08-26T09:01:18.430Z,101450.94
2022-08-26T09:02:07.961Z,101452.28
2022-08-26T09:02:45.467Z,101452.31
2022-08-26T09:03:16.908Z,101458.31
2022-08-26T09:03:54.791Z,101448.00
2022-08-26T09:04:44.111Z,101453.94
2022-08-26T09:05:15.771Z,101460.41
2022-08-26T09:05:51.416Z,101458.22
2022-08-26T09:06:22.930Z,101452.78
2022-08-26T09:06:54.823Z,101457.41
2022-08-26T09:07:27.168Z,101455.56
2022-08-26T09:07:58.597Z,101457.69
2022-08-26T09:08:31.497Z,101452.31
2022-08-26T09:09:03.507Z,101459.84
2022-08-26T09:09:39.833Z,101454.41
2022-08-26T09:10:17.594Z,101454.41
2022-08-26T09:10:50.889Z,101458.19
2022-08-26T09:11:22.368Z,101454.06
2022-08-26T09:11:56.269Z,101457.06
2022-08-26T09:12:31.125Z,101448.94
2022-08-26T09:13:05.261Z,101449.97
2022-08-26T09:13:36.763Z,101452.13
2022-08-26T09:14:08.226Z,101453.13
2022-08-26T09:14:39.729Z,101445.69
2022-08-26T09:15:37.390Z,101449.72
2022-08-26T09:16:10.832Z,101451.81
2022-08-26T09:16:52.707Z,101458.38
2022-08-26T09:17:31.283Z,101450.56
2022-08-26T09:18:05.858Z,101452.38
2022-08-26T09:18:46.190Z,101443.34
2022-08-26T09:19:21.407Z,101450.47
2022-08-26T09:19:53.774Z,101445.16
2022-08-26T09:20:28.827Z,101446.41
2022-08-26T09:21:05.310Z,101445.06
2022-08-26T09:21:37.113Z,101437.59
2022-08-26T09:22:09.579Z,101447.88
2022-08-26T09:22:44.318Z,101445.69
2022-08-26T09:23:16.052Z,101449.06
2022-08-26T09:23:51.954Z,101446.03
2022-08-26T09:24:28.573Z,101443.38
2022-08-26T09:25:01.549Z,101450.66
2022-08-26T09:25:33.533Z,101442.50
2022-08-26T09:26:14.716Z,101446.84
2022-08-26T09:26:47.595Z,101444.78
2022-08-26T09:27:45.997Z,101446.34
2022-08-26T09:28:18.799Z,101438.63
2022-08-26T09:29:00.667Z,101445.88
2022-08-26T09:29:36.010Z,101448.13
2022-08-26T09:30:08.478Z,101442.41
2022-08-26T09:30:43.062Z,101449.69
2022-08-26T09:31:23.372Z,101446.16
2022-08-26T09:32:15.096Z,101444.69
2022-08-26T09:32:57.300Z,101445.78
2022-08-26T09:33:29.997Z,101451.56
2022-08-26T09:34:04.567Z,101455.28
2022-08-26T09:34:36.300Z,101445.25
2022-08-26T09:35:23.464Z,101449.56
2022-08-26T09:36:11.224Z,101455.06
2022-08-26T09:36:44.227Z,101455.53
2022-08-26T09:37:15.675Z,101448.75
2022-08-26T09:38:28.955Z,101445.34
2022-08-26T09:39:00.595Z,101456.69
2022-08-26T09:39:37.787Z,101451.03
2022-08-26T09:40:13.865Z,101449.13
2022-08-26T09:40:48.492Z,101444.66
2022-08-26T09:41:31.849Z,101448.47
2022-08-26T09:42:16.860Z,101445.88
2022-08-26T09:43:03.403Z,101450.56
2022-08-26T09:43:35.612Z,101446.91
2022-08-26T09:44:17.995Z,101443.63
2022-08-26T09:44:54.953Z,101447.38
2022-08-26T09:45:27.848Z,101446.66
2022-08-26T09:46:34.879Z,101443.78
2022-08-26T09:47:06.936Z,101437.16
2022-08-26T09:47:52.502Z,101440.50
2022-08-26T09:48:31.589Z,101438.09
2022-08-26T09:49:32.693Z,101438.81
2022-08-26T09:50:28.942Z,101434.28
2022-08-26T09:51:19.532Z,101447.00
2022-08-26T09:52:13.932Z,101441.94
2022-08-26T09:52:45.480Z,101446.28
2022-08-26T09:53:20.833Z,101442.50
2022-08-26T09:53:53.962Z,101445.84
2022-08-26T09:54:30.404Z,101444.94
2022-08-26T09:55:06.110Z,101441.13
2022-08-26T09:55:39.496Z,101440.31
2022-08-26T09:56:12.621Z,101445.03
2022-08-26T09:56:46.405Z,101438.56
2022-08-26T09:57:19.244Z,101439.22
2022-08-26T09:57:51.663Z,101437.69
2022-08-26T09:58:37.930Z,101434.59
2022-08-26T09:59:11.112Z,101441.88
2022-08-26T09:59:42.911Z,101441.75
2022-08-26T10:00:38.721Z,101442.34
2022-08-26T10:01:36.316Z,101440.59
2022-08-26T10:02:22.776Z,101441.53
2022-08-26T10:02:57.903Z,101436.97
2022-08-26T10:03:33.325Z,101441.13
2022-08-26T10:04:06.756Z,101445.34
2022-08-26T10:04:38.351Z,101445.84
2022-08-26T10:05:10.662Z,101447.13
2022-08-26T10:05:45.869Z,101445.00
2022-08-26T10:06:17.296Z,101433.88
2022-08-26T10:06:55.000Z,101443.03
2022-08-26T10:07:35.348Z,101438.91
2022-08-26T10:08:18.053Z,101448.13
2022-08-26T10:08:51.703Z,101450.94
2022-08-26T10:09:25.929Z,101445.34
2022-08-26T10:09:59.660Z,101443.53
2022-08-26T10:10:32.704Z,101444.78
2022-08-26T10:11:07.227Z,101446.63
2022-08-26T10:11:52.236Z,101443.25
2022-08-26T10:12:23.724Z,101438.53
2022-08-26T10:13:03.667Z,101446.72
2022-08-26T10:13:36.424Z,101439.34
2022-08-26T10:14:09.238Z,101447.31
2022-08-26T10:15:23.574Z,101439.13
2022-08-26T10:15:59.639Z,101443.78
2022-08-26T10:16:34.440Z,101441.56
2022-08-26T10:17:11.707Z,101445.78
2022-08-26T10:18:04.013Z,101436.72
2022-08-26T10:18:37.024Z,101442.63
2022-08-26T10:19:10.251Z,101441.53
2022-08-26T10:19:56.869Z,101446.50
2022-08-26T10:20:31.374Z,101444.19
2022-08-26T10:21:04.991Z,101440.72
2022-08-26T10:21:41.844Z,101443.38
2022-08-26T10:22:20.399Z,101447.13
2022-08-26T10:23:12.229Z,101442.25
2022-08-26T10:23:48.583Z,101449.31
2022-08-26T10:24:41.170Z,101445.63
2022-08-26T10:25:14.901Z,101449.56
2022-08-26T10:25:53.594Z,101445.19
2022-08-26T10:26:53.338Z,101451.03
2022-08-26T10:27:25.336Z,101446.59
2022-08-26T10:28:01.011Z,101445.47
2022-08-26T10:28:40.754Z,101441.16
2022-08-26T10:29:14.237Z,101442.81
2022-08-26T10:29:46.623Z,101445.53
2022-08-26T10:30:23.396Z,101447.25
2022-08-26T10:31:02.031Z,101449.34
2022-08-26T10:31:41.057Z,101447.72
2022-08-26T10:32:14.672Z,101448.31
2022-08-26T10:32:47.823Z,101442.06
2022-08-26T10:33:19.288Z,101450.31
2022-08-26T10:33:52.518Z,101451.53
2022-08-26T10:34:25.812Z,101451.47
2022-08-26T10:34:57.239Z,101444.66
2022-08-26T10:35:28.980Z,101445.41
2022-08-26T10:36:02.096Z,101453.66
2022-08-26T10:37:14.467Z,101444.66
2022-08-26T10:37:44.098Z,101448.47
2022-08-26T10:38:18.001Z,101444.84
2022-08-26T10:38:49.502Z,101447.25
2022-08-26T10:39:26.154Z,101439.16
2022-08-26T10:40:00.771Z,101446.47
2022-08-26T10:40:38.068Z,101452.69
2022-08-26T10:41:11.435Z,101444.13
2022-08-26T10:41:44.618Z,101446.91
2022-08-26T10:42:22.739Z,101451.00
2022-08-26T10:42:57.323Z,101451.72
2022-08-26T10:43:40.959Z,101453.59
2022-08-26T10:44:12.822Z,101446.69
2022-08-26T10:44:44.943Z,101447.50
2022-08-26T10:45:21.943Z,101451.09
2022-08-26T10:45:54.594Z,101451.41
2022-08-26T10:46:28.514Z,101456.28
2022-08-26T10:47:02.312Z,101459.34
2022-08-26T10:47:45.160Z,101456.16
2022-08-26T10:48:24.881Z,101457.28
2022-08-26T10:48:59.866Z,101456.75
2022-08-26T10:49:31.820Z,101455.28
2022-08-26T10:50:03.786Z,101457.88
2022-08-26T10:50:41.799Z,101457.56
2022-08-26T10:51:13.652Z,101456.53
2022-08-26T10:51:58.884Z,101454.13
2022-08-26T10:52:36.662Z,101461.34
2022-08-26T10:53:12.035Z,101462.09
2022-08-26T10:53:46.688Z,101461.06
2022-08-26T10:54:34.191Z,101459.09
2022-08-26T10:55:08.475Z,101449.56
2022-08-26T10:56:00.334Z,101462.28
2022-08-26T10:56:40.815Z,101460.44
2022-08-26T10:57:15.901Z,101459.75
2022-08-26T10:57:58.521Z,101462.19
2022-08-26T10:58:48.096Z,101452.13
2022-08-26T10:59:38.312Z,101452.53
2022-08-26T11:00:44.035Z,101459.94
2022-08-26T11:01:40.848Z,101462.66
2022-08-26T11:02:32.960Z,101460.47
2022-08-26T11:03:22.775Z,101455.34
2022-08-26T11:03:59.667Z,101453.50
2022-08-26T11:04:38.410Z,101455.25
2022-08-26T11:05:15.875Z,101456.63
2022-08-26T11:06:08.667Z,101456.97
2022-08-26T11:06:40.266Z,101461.59
2022-08-26T11:07:30.047Z,101454.81
2022-08-26T11:08:27.838Z,101459.06
2022-08-26T11:09:01.004Z,101456.06
2022-08-26T11:09:53.212Z,101453.84
2022-08-26T11:10:24.802Z,101463.94
2022-08-26T11:10:59.435Z,101454.59
2022-08-26T11:11:34.883Z,101460.34
2022-08-26T11:12:10.289Z,101462.41
2022-08-26T11:12:42.164Z,101461.50
2022-08-26T11:13:13.686Z,101454.38
2022-08-26T11:13:58.099Z,101451.25
2022-08-26T11:14:34.244Z,101460.44
2022-08-26T11:15:24.631Z,101462.06
2022-08-26T11:15:58.540Z,101455.66
2022-08-26T11:16:42.937Z,101458.88
2022-08-26T11:17:15.420Z,101452.41
2022-08-26T11:17:46.903Z,101460.84
2022-08-26T11:18:37.441Z,101463.06
2022-08-26T11:19:09.860Z,101470.53
2022-08-26T11:20:00.786Z,101463.75
2022-08-26T11:20:41.947Z,101462.75
2022-08-26T11:21:43.347Z,101467.44
2022-08-26T11:22:26.848Z,101464.03
2022-08-26T11:23:18.732Z,101472.81
2022-08-26T11:23:52.922Z,101474.53
2022-08-26T11:24:43.081Z,101461.72
2022-08-26T11:25:18.382Z,101472.09
2022-08-26T11:25:56.139Z,101470.59
2022-08-26T11:26:43.177Z,101464.31
2022-08-26T11:27:26.715Z,101470.25
2022-08-26T11:27:59.660Z,101467.88
2022-08-26T11:28:53.348Z,101465.75
2022-08-26T11:29:44.856Z,101466.56
2022-08-26T11:30:18.460Z,101469.16
2022-08-26T11:30:57.027Z,101467.31
2022-08-26T11:31:30.715Z,101460.19
2022-08-26T11:32:03.493Z,101461.53
2022-08-26T11:32:35.140Z,101467.53
2022-08-26T11:33:08.234Z,101464.88
2022-08-26T11:33:47.963Z,101463.72
2022-08-26T11:34:20.078Z,101473.47
2022-08-26T11:34:57.808Z,101464.81
2022-08-26T11:35:37.594Z,101462.69
2022-08-26T11:36:12.168Z,101460.97
2022-08-26T11:36:47.047Z,101462.28
2022-08-26T11:37:57.298Z,101462.25
2022-08-26T11:38:29.006Z,101465.88
2022-08-26T11:39:21.214Z,101465.19
2022-08-26T11:39:55.320Z,101472.53
2022-08-26T11:40:32.632Z,101461.84
2022-08-26T11:41:09.086Z,101461.94
2022-08-26T11:41:44.200Z,101462.34
2022-08-26T11:42:20.075Z,101467.22
2022-08-26T11:42:58.232Z,101472.97
2022-08-26T11:43:31.599Z,101468.63
2022-08-26T11:44:07.075Z,101474.59
2022-08-26T11:44:39.898Z,101475.16
2022-08-26T11:45:47.659Z,101469.72
2022-08-26T11:46:28.580Z,101472.97
2022-08-26T11:47:00.574Z,101472.69
2022-08-26T11:47:32.041Z,101477.06
2022-08-26T11:48:22.155Z,101477.03
2022-08-26T11:49:02.104Z,101477.44
2022-08-26T11:49:33.848Z,101475.28
2022-08-26T11:50:06.550Z,101480.16
2022-08-26T11:50:38.004Z,101484.06
2022-08-26T11:51:11.159Z,101476.44
2022-08-26T11:51:48.109Z,101475.59
2022-08-26T11:52:22.020Z,101478.91
2022-08-26T11:52:54.742Z,101482.44
2022-08-26T11:53:26.573Z,101471.06
2022-08-26T11:54:10.528Z,101479.72
2022-08-26T11:54:58.789Z,101473.84
2022-08-26T11:55:35.913Z,101468.81
2022-08-26T11:56:12.697Z,101475.03
2022-08-26T11:56:45.251Z,101476.66
2022-08-26T11:57:16.734Z,101471.16
2022-08-26T11:57:49.794Z,101477.88
2022-08-26T11:58:22.538Z,101483.84
2022-08-26T11:58:57.462Z,101477.41
2022-08-26T12:00:14.204Z,101474.06
2022-08-26T12:01:03.455Z,101475.81
2022-08-26T12:01:36.233Z,101480.97
2022-08-26T12:02:12.398Z,101473.09
2022-08-26T12:02:43.869Z,101483.41
2022-08-26T12:03:19.763Z,101473.66
2022-08-26T12:03:51.491Z,101473.06
2022-08-26T12:04:30.922Z,101485.28
2022-08-26T12:05:03.043Z,101479.56
2022-08-26T12:06:45.204Z,101485.66
2022-08-26T12:07:18.578Z,101487.03
2022-08-26T12:07:56.794Z,101484.31
2022-08-26T12:08:31.649Z,101482.16
2022-08-26T12:09:10.403Z,101478.41
2022-08-26T12:10:11.446Z,101476.94
2022-08-26T12:10:43.709Z,101472.66
2022-08-26T12:11:25.359Z,101479.47
2022-08-26T12:12:35.269Z,101481.41
2022-08-26T12:13:22.556Z,101472.97
2022-08-26T12:14:05.619Z,101481.41
2022-08-26T12:14:39.695Z,101475.16
2022-08-26T12:15:16.220Z,101479.78
2022-08-26T12:15:57.053Z,101476.31
2022-08-26T12:16:30.665Z,101475.44
2022-08-26T12:17:13.632Z,101477.34
2022-08-26T12:17:50.478Z,101473.28
2022-08-26T12:18:28.973Z,101469.47
2022-08-26T12:19:01.283Z,101473.81
2022-08-26T12:19:33.791Z,101470.06
2022-08-26T12:20:06.799Z,101467.84
2022-08-26T12:20:48.949Z,101474.09
2022-08-26T12:21:24.623Z,101473.81
2022-08-26T12:22:02.268Z,101463.47
2022-08-26T12:22:38.829Z,101467.53
2022-08-26T12:23:43.339Z,101468.34
2022-08-26T12:24:18.644Z,101471.06
2022-08-26T12:24:54.097Z,101470.50
2022-08-26T12:25:25.892Z,101468.59
2022-08-26T12:27:42.642Z,101463.34
2022-08-26T12:28:14.178Z,101452.53
2022-08-26T12:28:53.338Z,101460.03
2022-08-26T12:29:27.604Z,101460.50
2022-08-26T12:30:08.472Z,101455.59
2022-08-26T12:30:40.100Z,101450.41
2022-08-26T12:31:11.761Z,101451.03
2022-08-26T12:31:44.419Z,101452.22
2022-08-26T12:32:18.374Z,101451.13
2022-08-26T12:32:58.865Z,101459.16
2022-08-26T12:33:31.015Z,101452.47
2022-08-26T12:34:05.350Z,101450.19
2022-08-26T12:34:37.139Z,101457.16
2022-08-26T12:35:13.717Z,101451.72
2022-08-26T12:35:48.473Z,101451.41
2022-08-26T12:36:27.646Z,101453.84
2022-08-26T12:37:00.818Z,101452.22
2022-08-26T12:37:35.611Z,101455.13
2022-08-26T12:38:08.954Z,101456.38
2022-08-26T12:38:40.999Z,101455.34
2022-08-26T12:39:28.209Z,101450.03
2022-08-26T12:40:30.840Z,101448.53
2022-08-26T12:41:02.679Z,101452.56
2022-08-26T12:41:42.279Z,101457.84
2022-08-26T12:42:15.815Z,101454.59
2022-08-26T12:42:47.760Z,101453.13
2022-08-26T12:43:39.694Z,101457.91
2022-08-26T12:44:41.571Z,101453.44
2022-08-26T12:45:45.756Z,101458.25
2022-08-26T12:46:18.188Z,101450.97
2022-08-26T12:46:50.030Z,101451.59
2022-08-26T12:47:42.545Z,101453.41
2022-08-26T12:48:32.177Z,101437.88
2022-08-26T12:49:04.168Z,101450.47
2022-08-26T12:49:39.997Z,101438.72
2022-08-26T12:50:29.803Z,101442.25
2022-08-26T12:51:01.843Z,101444.53
2022-08-26T12:51:35.496Z,101449.97
2022-08-26T12:52:29.812Z,101449.75
2022-08-26T12:53:10.325Z,101448.19
2022-08-26T12:53:43.240Z,101447.00
2022-08-26T12:54:16.264Z,101446.72
2022-08-26T12:54:59.324Z,101441.56
2022-08-26T12:55:44.956Z,101450.16
2022-08-26T12:56:29.724Z,101446.28
2022-08-26T12:57:12.717Z,101446.66
2022-08-26T12:57:45.548Z,101446.56
2022-08-26T12:58:31.935Z,101439.75
2022-08-26T12:59:12.178Z,101446.66
2022-08-26T12:59:45.087Z,101452.53
2022-08-26T13:00:44.225Z,101453.88
2022-08-26T13:01:22.345Z,101448.38
2022-08-26T13:01:54.615Z,101451.16
2022-08-26T13:02:36.551Z,101446.59
2022-08-26T13:03:31.533Z,101443.50
2022-08-26T13:04:03.446Z,101452.09
2022-08-26T13:04:43.158Z,101454.75
2022-08-26T13:05:27.815Z,101443.09
2022-08-26T13:06:23.603Z,101449.69
2022-08-26T13:07:14.837Z,101450.63
2022-08-26T13:08:06.396Z,101447.00
2022-08-26T13:08:42.283Z,101447.47
2022-08-26T13:09:17.030Z,101450.63
2022-08-26T13:09:50.493Z,101454.47
2022-08-26T13:10:37.921Z,101449.91
2022-08-26T13:11:23.631Z,101450.31
2022-08-26T13:11:55.443Z,101446.44
2022-08-26T13:12:33.193Z,101453.59
2022-08-26T13:13:05.023Z,101451.59
2022-08-26T13:13:37.350Z,101455.84
2022-08-26T13:14:11.241Z,101445.41
2022-08-26T13:14:42.824Z,101453.84
2022-08-26T13:15:14.471Z,101449.59
2022-08-26T13:15:46.357Z,101447.00
2022-08-26T13:16:19.717Z,101451.16
2022-08-26T13:16:52.066Z,101449.22
2022-08-26T13:17:23.703Z,101454.22
2022-08-26T13:17:55.461Z,101447.66
2022-08-26T13:18:30.200Z,101451.53
2022-08-26T13:19:10.258Z,101460.16
2022-08-26T13:19:42.319Z,101456.00
2022-08-26T13:20:13.978Z,101449.22
2022-08-26T13:20:45.630Z,101453.50
2022-08-26T13:21:20.999Z,101444.13
2022-08-26T13:21:55.737Z,101448.47
2022-08-26T13:22:27.422Z,101449.06
2022-08-26T13:22:59.545Z,101450.97
2022-08-26T13:23:31.124Z,101450.22
2022-08-26T13:24:09.060Z,101458.56
2022-08-26T13:24:42.613Z,101451.59
2022-08-26T13:25:14.347Z,101454.91
2022-08-26T13:25:51.801Z,101457.28
2022-08-26T13:26:23.444Z,101461.13
2022-08-26T13:26:57.797Z,101455.38
2022-08-26T13:27:29.544Z,101448.19
2022-08-26T13:28:01.117Z,101452.06
2022-08-26T13:28:32.783Z,101456.38
2022-08-26T13:29:09.572Z,101448.84
2022-08-26T13:29:41.891Z,101455.44
2022-08-26T13:30:13.888Z,101452.69
2022-08-26T13:30:48.016Z,101462.47
2022-08-26T13:31:20.745Z,101456.03
2022-08-26T13:31:59.415Z,101456.28
2022-08-26T13:32:31.757Z,101457.91
2022-08-26T13:33:03.323Z,101454.91
2022-08-26T13:33:36.729Z,101456.75
2022-08-26T13:34:09.820Z,101461.03
2022-08-26T13:34:41.915Z,101460.25
2022-08-26T13:35:13.554Z,101453.31
2022-08-26T13:35:45.141Z,101456.59
2022-08-26T13:36:16.799Z,101464.16
2022-08-26T13:36:50.804Z,101462.53
2022-08-26T13:37:34.081Z,101460.63
2022-08-26T13:38:08.927Z,101457.97
2022-08-26T13:38:40.994Z,101457.16
2022-08-26T13:39:13.218Z,101459.88
2022-08-26T13:39:44.917Z,101471.53
2022-08-26T13:40:16.947Z,101465.81
2022-08-26T13:40:48.658Z,101471.25
2022-08-26T13:41:29.227Z,101463.09
2022-08-26T13:42:01.397Z,101467.94
2022-08-26T13:42:33.105Z,101467.41
2022-08-26T13:43:06.163Z,101462.25
2022-08-26T13:43:37.738Z,101463.28
2022-08-26T13:44:10.013Z,101463.81
2022-08-26T13:44:43.781Z,101462.94
2022-08-26T13:45:15.345Z,101462.41
2022-08-26T13:45:49.566Z,101461.31
2022-08-26T13:46:21.237Z,101458.06
2022-08-26T13:46:52.978Z,101458.06
2022-08-26T13:47:26.096Z,101457.31
2022-08-26T13:48:00.435Z,101458.41
2022-08-26T13:48:33.934Z,101460.22
2022-08-26T13:49:05.629Z,101452.59
2022-08-26T13:49:37.269Z,101449.56
2022-08-26T13:50:09.145Z,101451.47
2022-08-26T13:50:40.950Z,101450.19
2022-08-26T13:51:12.561Z,101439.59
2022-08-26T13:51:44.244Z,101448.28
2022-08-26T13:52:16.575Z,101452.31
2022-08-26T13:52:48.172Z,101452.84
2022-08-26T13:53:20.189Z,101447.22
2022-08-26T13:53:52.339Z,101446.66
2022-08-26T13:54:24.387Z,101453.63
2022-08-26T13:54:56.203Z,101457.69
2022-08-26T13:55:28.298Z,101453.06
2022-08-26T13:56:00.738Z,101453.06
2022-08-26T13:56:33.264Z,101446.56
2022-08-26T13:57:06.027Z,101456.59
2022-08-26T13:57:38.513Z,101445.31
2022-08-26T13:58:12.033Z,101448.19
2022-08-26T13:58:44.067Z,101454.72
2022-08-26T13:59:17.699Z,101457.94
2022-08-26T13:59:49.289Z,101451.97
2022-08-26T14:00:21.299Z,101451.34
2022-08-26T14:00:53.438Z,101453.53
2022-08-26T14:01:26.075Z,101461.13
2022-08-26T14:01:58.797Z,101454.63
2022-08-26T14:02:31.071Z,101453.53
2022-08-26T14:03:02.911Z,101450.00
2022-08-26T14:03:34.929Z,101455.44
2022-08-26T14:04:07.197Z,101463.59
2022-08-26T14:04:38.947Z,101458.50
2022-08-26T14:05:10.667Z,101459.31
2022-08-26T14:05:42.463Z,101455.16
2022-08-26T14:06:14.726Z,101464.94
2022-08-26T14:06:46.396Z,101455.97
2022-08-26T14:07:19.505Z,101457.44
2022-08-26T14:07:51.086Z,101460.09
2022-08-26T14:08:23.102Z,101457.13
2022-08-26T14:08:54.735Z,101456.03
2022-08-26T14:09:26.354Z,101451.69